Time;durP1;ratioP1;P1;durP2;ratioP2;P2;SDS_P1;SDS_P2;PMS_P1;PMS_P2;Temp;Humidity;BMP_temperature;BMP_pressure;BME280_temperature;BME280_humidity;BME280_pressure;Samples;Min_cycle;Max_cycle;Signal;HPM_P1;HPM_P2
2023/10/30 00:00:45;;;;;;;5.40;1.50;;;;;;;17.20;42.55;100932.51;109907;1286;21929;-59
2023/10/30 00:03:14;;;;;;;2.70;1.10;;;;;;;17.19;42.56;100931.86;109896;1286;21951;-68
2023/10/30 00:05:40;;;;;;;3.10;1.30;;;;;;;17.19;42.51;100927.43;109902;1287;21855;-59
2023/10/30 00:08:06;;;;;;;3.40;1.20;;;;;;;17.20;42.57;100929.86;109913;1279;21961;-59
2023/10/30 00:10:34;;;;;;;2.90;1.30;;;;;;;17.23;42.56;100928.70;109901;1277;21941;-60
2023/10/30 00:12:59;;;;;;;3.80;1.30;;;;;;;17.24;42.59;100932.90;109916;1287;21947;-67
2023/10/30 00:15:25;;;;;;;3.70;1.30;;;;;;;17.25;42.57;100937.13;109898;1283;22417;-68
2023/10/30 00:17:51;;;;;;;5.00;1.40;;;;;;;17.24;42.59;100932.72;109913;1280;21905;-60
2023/10/30 00:20:17;;;;;;;3.80;1.20;;;;;;;17.24;42.63;100933.97;109893;1277;22003;-68
2023/10/30 00:22:43;;;;;;;3.30;1.10;;;;;;;17.27;42.54;100935.14;109921;1287;21924;-59
2023/10/30 00:25:09;;;;;;;2.50;1.10;;;;;;;17.31;42.48;100939.44;109894;1287;21985;-59
2023/10/30 00:27:34;;;;;;;4.60;1.50;;;;;;;17.33;42.43;100930.49;109894;1280;21912;-59
2023/10/30 00:30:00;;;;;;;3.40;1.30;;;;;;;17.35;42.40;100931.17;109919;1287;21867;-59
2023/10/30 00:32:26;;;;;;;4.20;1.40;;;;;;;17.35;42.35;100931.16;109879;1285;21920;-69
2023/10/30 00:34:51;;;;;;;2.30;1.00;;;;;;;17.34;42.33;100932.61;109919;1276;21935;-69
2023/10/30 00:37:17;;;;;;;3.30;1.40;;;;;;;17.30;42.39;100936.45;109905;1286;21916;-69
2023/10/30 00:39:43;;;;;;;3.40;1.20;;;;;;;17.27;42.27;100936.55;109920;1281;22306;-59
2023/10/30 00:42:09;;;;;;;2.80;1.00;;;;;;;17.22;42.28;100937.23;109913;1279;21947;-69
2023/10/30 00:44:37;;;;;;;1.70;1.00;;;;;;;17.18;42.25;100935.42;109903;1276;21977;-59
2023/10/30 00:47:04;;;;;;;2.60;1.20;;;;;;;17.11;42.22;100933.32;109911;1287;21956;-59
2023/10/30 00:49:29;;;;;;;3.30;1.10;;;;;;;17.05;42.22;100928.17;109914;1283;22268;-59
2023/10/30 00:51:55;;;;;;;3.30;1.00;;;;;;;16.97;42.28;100920.09;109910;1287;21879;-69
2023/10/30 00:54:20;;;;;;;3.70;0.90;;;;;;;16.93;42.17;100918.23;109901;1284;21950;-59
2023/10/30 00:56:46;;;;;;;3.90;1.40;;;;;;;16.86;42.17;100914.71;109139;1280;1001925;-59
2023/10/30 00:59:11;;;;;;;3.10;0.90;;;;;;;16.86;42.37;100916.33;109905;1280;21923;-59
2023/10/30 01:01:37;;;;;;;2.10;0.80;;;;;;;16.86;42.31;100917.90;109891;1277;21940;-65
2023/10/30 01:04:03;;;;;;;3.30;0.90;;;;;;;16.89;42.24;100919.60;109902;1287;21844;-59
2023/10/30 01:06:29;;;;;;;3.90;1.00;;;;;;;16.91;42.26;100917.57;109946;1286;21976;-59
2023/10/30 01:08:54;;;;;;;2.00;1.10;;;;;;;16.94;42.20;100920.15;109940;1284;21963;-60
2023/10/30 01:11:20;;;;;;;4.70;1.00;;;;;;;16.96;42.25;100921.36;109958;1279;21949;-59
2023/10/30 01:13:45;;;;;;;2.10;1.10;;;;;;;16.97;42.24;100920.10;109972;1279;21916;-67
2023/10/30 01:16:11;;;;;;;2.90;0.90;;;;;;;16.97;42.37;100916.00;109940;1283;21994;-69
2023/10/30 01:18:37;;;;;;;3.00;1.10;;;;;;;16.99;42.33;100925.73;109958;1286;22397;-70
2023/10/30 01:21:08;;;;;;;2.50;0.70;;;;;;;17.01;42.33;100930.44;109966;1279;21995;-60
2023/10/30 01:23:34;;;;;;;2.10;1.10;;;;;;;17.03;42.29;100929.11;109953;1280;22015;-69
2023/10/30 01:25:59;;;;;;;2.40;0.90;;;;;;;17.04;42.26;100925.73;109938;1286;22006;-70
2023/10/30 01:28:25;;;;;;;2.00;1.00;;;;;;;17.02;42.21;100928.27;109940;1286;21854;-70
2023/10/30 01:30:50;;;;;;;3.50;1.00;;;;;;;16.99;42.13;100930.68;109955;1286;21965;-59
2023/10/30 01:33:16;;;;;;;2.80;0.80;;;;;;;16.96;42.19;100929.69;109944;1286;21937;-59
2023/10/30 01:35:41;;;;;;;2.60;1.20;;;;;;;16.94;42.23;100933.26;109960;1286;21942;-69
2023/10/30 01:38:07;;;;;;;2.70;1.10;;;;;;;16.93;42.32;100934.54;109958;1280;21966;-59
2023/10/30 01:40:33;;;;;;;1.60;0.80;;;;;;;16.91;42.36;100933.54;109958;1280;22028;-70
2023/10/30 01:43:00;;;;;;;2.40;0.90;;;;;;;16.90;42.34;100935.86;109956;1286;21922;-69
2023/10/30 01:45:25;;;;;;;3.20;0.80;;;;;;;16.88;42.37;100938.21;109929;1286;22012;-69
2023/10/30 01:47:51;;;;;;;3.20;1.00;;;;;;;16.86;42.14;100934.93;109946;1281;21928;-68
2023/10/30 01:50:16;;;;;;;1.60;0.80;;;;;;;16.80;42.05;100934.20;109960;1286;21989;-69
2023/10/30 01:52:42;;;;;;;1.90;0.90;;;;;;;16.70;42.19;100933.80;109976;1276;21922;-69
2023/10/30 01:55:08;;;;;;;3.10;1.10;;;;;;;16.64;42.44;100932.73;109962;1280;21854;-59
2023/10/30 01:57:33;;;;;;;3.10;1.10;;;;;;;16.61;42.60;100926.61;109847;1279;21950;-61
2023/10/30 01:59:59;;;;;;;2.10;0.70;;;;;;;16.59;42.61;100922.04;109905;1280;21879;-69
2023/10/30 02:02:25;;;;;;;3.60;0.90;;;;;;;16.58;42.72;100925.63;109874;1276;21957;-69
2023/10/30 02:04:50;;;;;;;3.00;0.80;;;;;;;16.54;42.64;100925.02;109917;1285;21930;-69
2023/10/30 02:07:16;;;;;;;2.50;0.90;;;;;;;16.51;42.62;100927.42;109962;1273;21969;-69
2023/10/30 02:09:41;;;;;;;4.20;1.20;;;;;;;16.50;42.72;100927.63;109953;1286;21951;-61
2023/10/30 02:12:07;;;;;;;2.40;0.90;;;;;;;16.52;42.86;100932.89;109937;1280;22000;-69
2023/10/30 02:14:34;;;;;;;3.00;0.70;;;;;;;16.55;42.88;100940.79;109963;1286;21930;-59
2023/10/30 02:16:59;;;;;;;3.50;1.00;;;;;;;16.56;42.74;100943.57;109953;1274;21950;-69
2023/10/30 02:19:26;;;;;;;2.40;0.80;;;;;;;16.56;42.73;100942.33;109953;1283;21979;-69
2023/10/30 02:21:52;;;;;;;3.10;0.80;;;;;;;16.56;42.64;100943.77;109941;1280;21834;-59
2023/10/30 02:24:18;;;;;;;2.40;0.90;;;;;;;16.53;42.64;100940.83;109969;1279;22798;-69
2023/10/30 02:26:44;;;;;;;2.30;0.80;;;;;;;16.51;42.72;100941.25;109962;1283;22126;-69
2023/10/30 02:29:09;;;;;;;2.40;1.10;;;;;;;16.50;42.74;100943.02;108439;1282;1002848;-69
2023/10/30 02:31:35;;;;;;;1.90;0.70;;;;;;;16.51;42.86;100941.78;109952;1286;21917;-59
2023/10/30 02:34:01;;;;;;;1.30;0.80;;;;;;;16.52;42.98;100944.77;109951;1283;21941;-68
2023/10/30 02:36:27;;;;;;;2.20;0.80;;;;;;;16.54;42.89;100942.40;109951;1274;21919;-59
2023/10/30 02:38:53;;;;;;;1.60;0.60;;;;;;;16.57;42.84;100944.61;109936;1280;21852;-59
2023/10/30 02:41:19;;;;;;;2.60;0.70;;;;;;;16.59;42.99;100946.50;109955;1286;21952;-59
2023/10/30 02:43:45;;;;;;;3.10;1.00;;;;;;;16.60;43.00;100946.11;109960;1286;21954;-59
2023/10/30 02:46:10;;;;;;;3.30;1.00;;;;;;;16.61;42.94;100942.73;109971;1286;21933;-68
2023/10/30 02:48:36;;;;;;;3.70;0.80;;;;;;;16.60;42.89;100937.95;109954;1284;21922;-69
2023/10/30 02:51:01;;;;;;;3.40;0.90;;;;;;;16.59;43.00;100938.34;109940;1277;21935;-69
2023/10/30 02:53:27;;;;;;;1.60;0.70;;;;;;;16.60;43.07;100939.73;109970;1280;21942;-70
2023/10/30 02:55:53;;;;;;;3.50;1.00;;;;;;;16.63;43.33;100935.41;109965;1278;21948;-59
2023/10/30 02:58:19;;;;;;;2.40;0.90;;;;;;;16.67;43.54;100929.98;109938;1286;21970;-70
2023/10/30 03:00:44;;;;;;;2.50;0.90;;;;;;;16.73;43.58;100937.60;109971;1280;21969;-59
2023/10/30 03:03:10;;;;;;;2.70;1.00;;;;;;;16.79;43.69;100940.10;109975;1283;21930;-59
2023/10/30 03:05:35;;;;;;;3.50;0.80;;;;;;;16.81;43.62;100936.65;109951;1283;21924;-69
2023/10/30 03:08:01;;;;;;;4.70;1.30;;;;;;;16.83;43.42;100931.46;109968;1277;21949;-70
2023/10/30 03:10:30;;;;;;;2.30;1.00;;;;;;;16.84;43.59;100933.22;109955;1284;21939;-70
2023/10/30 03:12:56;;;;;;;4.10;0.90;;;;;;;16.83;43.74;100928.98;109974;1286;21841;-59
2023/10/30 03:15:22;;;;;;;3.70;0.80;;;;;;;16.85;43.72;100931.77;109934;1286;21828;-59
2023/10/30 03:17:48;;;;;;;4.10;1.20;;;;;;;16.87;43.75;100930.81;109956;1273;21878;-69
2023/10/30 03:20:14;;;;;;;3.00;1.00;;;;;;;16.89;43.79;100932.89;109947;1280;21948;-68
2023/10/30 03:22:40;;;;;;;6.10;1.40;;;;;;;16.89;43.91;100929.87;109957;1280;21863;-59
2023/10/30 03:25:06;;;;;;;1.90;0.80;;;;;;;16.89;43.82;100926.16;109931;1281;21981;-59
2023/10/30 03:27:33;;;;;;;3.70;0.90;;;;;;;16.89;43.76;100926.52;109917;1286;22094;-59
2023/10/30 03:29:59;;;;;;;2.80;0.70;;;;;;;16.90;43.77;100929.66;109916;1286;21967;-69
2023/10/30 03:32:25;;;;;;;3.90;1.00;;;;;;;16.92;43.86;100929.42;109900;1286;22032;-59
2023/10/30 03:34:50;;;;;;;3.30;0.90;;;;;;;16.93;43.80;100930.45;109929;1277;22436;-59
2023/10/30 03:37:16;;;;;;;3.10;1.00;;;;;;;16.91;43.97;100930.33;109941;1283;21946;-61
2023/10/30 03:39:41;;;;;;;4.10;1.40;;;;;;;16.89;44.26;100930.04;109914;1286;21853;-59
2023/10/30 03:42:07;;;;;;;3.70;1.00;;;;;;;16.90;44.52;100932.86;109928;1286;21972;-69
2023/10/30 03:44:33;;;;;;;2.60;1.00;;;;;;;16.93;44.72;100931.16;109936;1276;21947;-70
2023/10/30 03:46:58;;;;;;;4.20;1.00;;;;;;;16.97;44.75;100934.45;109966;1286;21940;-70
2023/10/30 03:49:24;;;;;;;3.50;1.20;;;;;;;17.02;44.72;100936.79;109945;1286;21950;-69
2023/10/30 03:51:49;;;;;;;2.30;1.00;;;;;;;17.05;44.87;100934.38;109930;1286;21939;-69
2023/10/30 03:54:15;;;;;;;2.20;0.90;;;;;;;17.06;45.09;100938.62;109897;1286;22011;-59
2023/10/30 03:56:40;;;;;;;2.10;0.90;;;;;;;17.09;45.50;100939.23;109943;1276;21861;-59
2023/10/30 03:59:06;;;;;;;3.50;1.20;;;;;;;17.14;46.28;100938.18;109927;1274;21953;-59
2023/10/30 04:01:31;;;;;;;3.00;1.10;;;;;;;17.22;46.37;100945.02;109913;1286;21871;-59
2023/10/30 04:03:57;;;;;;;3.90;1.10;;;;;;;17.29;46.63;100945.54;109928;1279;21848;-69
2023/10/30 04:06:22;;;;;;;3.10;1.00;;;;;;;17.33;46.49;100945.39;109916;1281;22266;-65
2023/10/30 04:08:48;;;;;;;2.10;1.00;;;;;;;17.36;46.49;100944.95;109903;1285;22325;-59
2023/10/30 04:11:16;;;;;;;3.60;1.30;;;;;;;17.35;46.60;100946.05;109888;1285;22001;-69
2023/10/30 04:13:41;;;;;;;5.00;1.00;;;;;;;17.32;46.71;100945.44;109861;1279;22397;-59
2023/10/30 04:16:10;;;;;;;3.70;1.10;;;;;;;17.28;46.83;100947.00;109880;1287;21943;-70
2023/10/30 04:18:35;;;;;;;3.80;1.30;;;;;;;17.25;46.85;100948.32;109926;1279;21862;-59
2023/10/30 04:21:01;;;;;;;5.90;1.30;;;;;;;17.23;46.91;100950.33;109897;1276;21922;-59
2023/10/30 04:23:27;;;;;;;1.90;0.90;;;;;;;17.21;47.03;100951.82;109906;1285;22018;-59
2023/10/30 04:25:52;;;;;;;4.40;1.30;;;;;;;17.20;47.20;100952.90;109902;1277;21935;-58
2023/10/30 04:28:18;;;;;;;2.60;1.10;;;;;;;17.20;47.20;100959.30;109915;1279;21928;-71
2023/10/30 04:30:44;;;;;;;4.80;1.50;;;;;;;17.20;47.28;100962.30;109905;1281;21858;-58
2023/10/30 04:33:09;;;;;;;2.70;1.30;;;;;;;17.21;47.30;100960.52;109913;1276;21994;-70
2023/10/30 04:35:35;;;;;;;5.80;1.40;;;;;;;17.20;47.37;100958.59;109910;1281;21953;-70
2023/10/30 04:38:00;;;;;;;4.80;1.40;;;;;;;17.17;47.21;100960.46;109906;1283;21984;-58
2023/10/30 04:40:26;;;;;;;3.30;1.30;;;;;;;17.14;47.40;100964.80;108383;1279;1002148;-70
2023/10/30 04:42:51;;;;;;;5.10;1.50;;;;;;;17.13;47.67;100968.55;109904;1280;21913;-71
2023/10/30 04:45:18;;;;;;;4.70;1.00;;;;;;;17.14;47.91;100971.55;109920;1283;21949;-58
2023/10/30 04:47:43;;;;;;;4.50;1.10;;;;;;;17.15;48.60;100971.86;109916;1287;21942;-71
2023/10/30 04:50:09;;;;;;;3.80;1.20;;;;;;;17.18;48.83;100972.64;109888;1279;21941;-58
2023/10/30 04:52:35;;;;;;;2.10;1.10;;;;;;;17.23;49.56;100972.48;109920;1276;21961;-59
2023/10/30 04:55:00;;;;;;;3.10;1.30;;;;;;;17.27;49.57;100978.23;109897;1276;21868;-58
2023/10/30 04:57:26;;;;;;;3.10;1.50;;;;;;;17.31;49.71;100978.11;109928;1276;21970;-70
2023/10/30 04:59:52;;;;;;;2.50;1.50;;;;;;;17.35;49.78;100979.59;109919;1279;21820;-72
2023/10/30 05:02:17;;;;;;;7.20;1.50;;;;;;;17.41;49.81;100980.13;109928;1287;21984;-58
2023/10/30 05:04:43;;;;;;;4.70;1.50;;;;;;;17.47;50.31;100983.83;109905;1283;22028;-58
2023/10/30 05:07:08;;;;;;;7.50;1.70;;;;;;;17.53;51.21;100988.60;109890;1287;22013;-71
2023/10/30 05:09:36;;;;;;;4.40;1.70;;;;;;;17.63;51.52;100989.19;109900;1287;21962;-70
2023/10/30 05:12:01;;;;;;;5.50;1.90;;;;;;;17.73;51.73;100991.67;109910;1279;21931;-58
2023/10/30 05:14:28;;;;;;;4.10;1.80;;;;;;;17.83;51.89;100992.79;109899;1287;21962;-67
2023/10/30 05:16:54;;;;;;;4.00;1.80;;;;;;;17.91;52.11;100988.09;109143;1287;1001986;-67
2023/10/30 05:19:19;;;;;;;4.00;1.40;;;;;;;17.99;52.21;100989.98;109899;1280;21960;-71
2023/10/30 05:21:45;;;;;;;2.70;1.30;;;;;;;18.06;52.33;100993.48;109893;1287;22012;-59
2023/10/30 05:24:10;;;;;;;5.10;1.60;;;;;;;18.14;52.62;100992.34;109859;1287;21965;-70
2023/10/30 05:26:37;;;;;;;3.90;1.60;;;;;;;18.21;52.71;100987.13;109906;1285;21846;-58
2023/10/30 05:29:03;;;;;;;6.60;2.10;;;;;;;18.28;52.87;100984.56;109908;1285;21936;-68
2023/10/30 05:31:28;;;;;;;4.80;2.00;;;;;;;18.37;52.96;100985.33;109906;1281;22015;-59
2023/10/30 05:33:54;;;;;;;13.30;2.50;;;;;;;18.45;53.36;100986.46;109901;1283;21941;-69
2023/10/30 05:36:20;;;;;;;13.80;2.60;;;;;;;18.54;53.96;100984.00;109930;1276;22085;-69
2023/10/30 05:38:46;;;;;;;21.50;3.00;;;;;;;18.65;54.16;100978.98;109901;1287;21868;-59
2023/10/30 05:41:12;;;;;;;4.80;2.00;;;;;;;18.79;55.16;100977.96;109910;1276;21965;-70
2023/10/30 05:43:38;;;;;;;6.10;1.90;;;;;;;18.95;55.93;100979.34;109893;1283;22026;-59
2023/10/30 05:46:03;;;;;;;4.70;2.00;;;;;;;19.11;56.47;100977.67;109909;1276;21923;-60
2023/10/30 05:48:29;;;;;;;4.50;2.10;;;;;;;19.26;56.63;100970.88;109848;1287;21946;-59
2023/10/30 05:50:55;;;;;;;5.30;2.10;;;;;;;19.40;56.93;100970.13;109909;1283;21921;-70
2023/10/30 05:53:20;;;;;;;3.10;1.70;;;;;;;19.53;57.19;100974.27;109906;1282;22462;-60
2023/10/30 05:55:46;;;;;;;7.80;2.20;;;;;;;19.65;57.34;100980.02;109913;1285;22397;-69
2023/10/30 05:58:12;;;;;;;4.60;1.90;;;;;;;19.76;58.27;100982.95;109911;1285;21931;-69
2023/10/30 06:00:38;;;;;;;3.50;1.70;;;;;;;19.84;57.79;100981.00;109919;1280;22005;-66
2023/10/30 06:03:07;;;;;;;3.40;1.70;;;;;;;19.92;58.20;100983.92;109895;1287;21887;-70
2023/10/30 06:05:32;;;;;;;4.10;2.00;;;;;;;20.00;58.08;100990.19;109915;1287;21930;-59
2023/10/30 06:07:58;;;;;;;6.40;2.20;;;;;;;20.07;58.29;100995.92;109899;1279;22003;-69
2023/10/30 06:10:24;;;;;;;3.90;1.70;;;;;;;20.15;57.93;100999.53;109902;1285;21976;-60
2023/10/30 06:12:50;;;;;;;6.60;1.80;;;;;;;20.23;58.37;100995.81;109911;1283;21947;-70
2023/10/30 06:15:16;;;;;;;3.70;1.70;;;;;;;20.29;58.65;100988.25;109903;1285;21919;-59
2023/10/30 06:17:41;;;;;;;4.70;1.70;;;;;;;20.37;58.52;100986.10;109910;1280;21951;-59
2023/10/30 06:20:08;;;;;;;7.60;1.50;;;;;;;20.47;58.61;100983.70;109920;1280;21925;-70
2023/10/30 06:22:34;;;;;;;4.10;2.10;;;;;;;20.57;58.63;100983.79;109925;1282;21948;-70
2023/10/30 06:25:00;;;;;;;4.20;1.90;;;;;;;20.68;58.85;100985.65;109917;1285;22224;-69
2023/10/30 06:27:27;;;;;;;4.10;1.60;;;;;;;20.78;58.56;100985.92;109900;1284;21962;-68
2023/10/30 06:29:52;;;;;;;4.20;1.50;;;;;;;20.88;58.47;100981.94;109921;1287;21930;-69
2023/10/30 06:32:18;;;;;;;4.90;2.20;;;;;;;20.99;59.27;100981.26;109904;1287;21950;-69
2023/10/30 06:34:44;;;;;;;4.10;1.60;;;;;;;21.12;59.27;100987.05;109912;1285;21959;-60
2023/10/30 06:37:09;;;;;;;4.60;1.80;;;;;;;21.27;60.65;100984.39;109906;1287;22042;-59
2023/10/30 06:39:35;;;;;;;2.40;1.40;;;;;;;21.43;60.64;100983.46;109909;1279;22017;-59
2023/10/30 06:42:02;;;;;;;5.10;1.70;;;;;;;21.59;60.01;100987.90;109914;1283;21897;-60
2023/10/30 06:44:28;;;;;;;5.50;1.60;;;;;;;21.75;60.11;100984.25;109906;1279;21977;-59
2023/10/30 06:46:55;;;;;;;4.50;1.50;;;;;;;21.92;60.56;100983.23;109900;1280;21930;-68
2023/10/30 06:49:21;;;;;;;5.70;2.20;;;;;;;22.09;61.18;100981.67;109904;1279;22018;-68
2023/10/30 06:51:47;;;;;;;3.60;1.50;;;;;;;22.26;60.06;100976.73;109913;1279;21953;-69
2023/10/30 06:54:12;;;;;;;7.00;2.70;;;;;;;22.42;59.92;100973.73;109907;1279;21948;-71
2023/10/30 06:56:38;;;;;;;4.60;1.90;;;;;;;22.58;59.39;100975.63;109895;1287;22000;-58
2023/10/30 06:59:04;;;;;;;5.20;1.50;;;;;;;22.72;58.85;100969.11;109919;1285;22008;-58
2023/10/30 07:01:44;;;;;;;4.80;1.90;;;;;;;22.88;58.50;100966.98;109917;1276;21933;-69
2023/10/30 07:04:11;;;;;;;9.00;1.50;;;;;;;23.05;57.83;100963.03;109887;1279;21925;-60
2023/10/30 07:06:37;;;;;;;3.90;1.30;;;;;;;23.20;57.28;100965.24;109897;1287;21877;-68
2023/10/30 07:09:06;;;;;;;3.70;1.10;;;;;;;23.36;56.92;100963.69;109904;1287;21916;-68
2023/10/30 07:11:39;;;;;;;4.00;1.40;;;;;;;23.51;55.76;100965.52;109899;1281;22364;-71
2023/10/30 07:14:05;;;;;;;2.60;1.10;;;;;;;23.61;54.54;100970.52;109906;1287;21892;-60
2023/10/30 07:16:31;;;;;;;4.30;1.10;;;;;;;23.71;53.97;100967.02;109907;1275;21981;-71
2023/10/30 07:18:57;;;;;;;3.40;1.10;;;;;;;23.82;53.11;100962.30;109929;1281;21911;-60
2023/10/30 07:21:23;;;;;;;6.30;1.40;;;;;;;23.95;53.14;100956.52;109920;1276;21965;-70
2023/10/30 07:23:49;;;;;;;4.70;1.30;;;;;;;24.10;52.53;100954.23;109898;1286;21929;-59
2023/10/30 07:26:16;;;;;;;2.90;1.20;;;;;;;24.23;51.83;100953.30;109876;1281;21858;-70
2023/10/30 07:28:45;;;;;;;4.20;0.90;;;;;;;24.34;51.39;100949.55;109900;1278;21945;-59
2023/10/30 07:31:11;;;;;;;7.20;1.30;;;;;;;24.46;50.56;100950.45;109892;1287;21953;-59
2023/10/30 07:33:36;;;;;;;3.30;1.10;;;;;;;24.54;50.05;100950.86;109896;1287;21949;-60
2023/10/30 07:36:03;;;;;;;2.30;0.80;;;;;;;24.62;49.73;100950.69;109910;1276;21944;-69
2023/10/30 07:38:29;;;;;;;3.70;1.00;;;;;;;24.73;49.03;100949.52;109899;1280;21947;-60
2023/10/30 07:40:54;;;;;;;5.00;0.90;;;;;;;24.82;48.81;100943.23;109911;1285;21919;-60
2023/10/30 07:43:23;;;;;;;5.60;1.10;;;;;;;24.90;48.22;100941.63;109912;1281;21952;-67
2023/10/30 07:45:50;;;;;;;4.20;0.90;;;;;;;24.99;47.45;100940.02;109911;1287;22016;-69
2023/10/30 07:48:16;;;;;;;6.40;1.40;;;;;;;25.06;47.02;100940.45;109911;1287;21944;-68
2023/10/30 07:50:44;;;;;;;2.90;1.00;;;;;;;25.15;47.16;100936.96;109922;1274;21976;-69
2023/10/30 07:53:10;;;;;;;4.90;1.20;;;;;;;25.29;47.09;100938.39;109923;1274;22005;-59
2023/10/30 07:55:37;;;;;;;4.50;1.20;;;;;;;25.42;46.65;100938.65;109940;1279;21973;-69
2023/10/30 07:58:06;;;;;;;4.30;1.20;;;;;;;25.51;46.45;100939.01;109934;1275;22008;-58
2023/10/30 08:00:32;;;;;;;4.30;1.40;;;;;;;25.57;45.90;100943.63;109909;1286;21994;-59
2023/10/30 08:02:59;;;;;;;7.00;1.40;;;;;;;25.62;45.94;100941.52;109935;1285;22028;-69
2023/10/30 08:05:26;;;;;;;4.40;1.30;;;;;;;25.70;45.80;100944.05;109932;1276;21968;-68
2023/10/30 08:07:52;;;;;;;8.30;1.60;;;;;;;25.75;45.23;100940.08;109911;1279;22207;-60
2023/10/30 08:10:17;;;;;;;2.30;1.20;;;;;;;25.82;45.40;100936.89;109826;1279;21976;-69
2023/10/30 08:12:43;;;;;;;2.90;1.00;;;;;;;25.95;45.42;100931.17;109922;1286;22019;-61
2023/10/30 08:15:10;;;;;;;5.10;1.40;;;;;;;26.09;44.96;100930.25;109925;1279;21969;-60
2023/10/30 08:17:36;;;;;;;2.60;1.20;;;;;;;26.19;44.35;100924.04;109955;1278;21956;-60
2023/10/30 08:20:03;;;;;;;4.10;1.30;;;;;;;26.27;44.23;100921.30;109918;1286;22006;-60
2023/10/30 08:22:30;;;;;;;6.30;1.50;;;;;;;26.37;44.11;100924.23;109937;1280;22021;-59
2023/10/30 08:24:55;;;;;;;4.80;1.30;;;;;;;26.47;43.69;100922.80;109927;1286;21974;-69
2023/10/30 08:27:21;;;;;;;1.60;0.70;;;;;;;26.54;43.72;100923.16;109942;1282;21987;-69
2023/10/30 08:29:47;;;;;;;5.00;0.90;;;;;;;26.60;42.77;100925.45;109944;1279;21955;-59
2023/10/30 08:32:13;;;;;;;3.50;1.00;;;;;;;26.65;42.11;100922.98;109868;1286;22007;-68
2023/10/30 08:34:39;;;;;;;3.70;1.70;;;;;;;26.70;41.68;100922.77;109855;1286;21970;-60
2023/10/30 08:37:04;;;;;;;5.40;1.10;;;;;;;26.78;41.39;100923.83;109930;1286;22459;-60
2023/10/30 08:39:30;;;;;;;5.00;0.90;;;;;;;26.85;40.42;100919.92;109928;1284;21985;-69
2023/10/30 08:41:56;;;;;;;4.00;0.90;;;;;;;26.96;40.13;100925.63;109929;1285;22002;-59
2023/10/30 08:44:21;;;;;;;7.30;0.90;;;;;;;27.04;40.08;100921.77;109904;1286;21959;-60
2023/10/30 08:46:47;;;;;;;2.80;1.00;;;;;;;27.12;39.88;100923.89;109917;1287;21954;-60
2023/10/30 08:49:12;;;;;;;2.10;0.80;;;;;;;27.23;40.00;100919.81;109922;1279;21925;-68
2023/10/30 08:51:42;;;;;;;6.50;1.20;;;;;;;27.32;39.47;100918.84;109933;1286;21951;-68
2023/10/30 08:54:08;;;;;;;2.40;0.90;;;;;;;27.39;39.56;100915.42;109944;1286;22389;-68
2023/10/30 08:56:33;;;;;;;3.60;1.00;;;;;;;27.49;39.03;100913.29;109931;1285;22019;-68
2023/10/30 08:58:59;;;;;;;2.30;1.00;;;;;;;27.56;38.28;100909.70;109917;1286;21944;-68
2023/10/30 09:01:26;;;;;;;5.60;1.00;;;;;;;27.67;37.64;100906.73;109925;1286;21843;-68
2023/10/30 09:03:52;;;;;;;6.30;0.90;;;;;;;27.79;37.25;100902.20;109920;1283;21866;-68
2023/10/30 09:06:18;;;;;;;5.20;1.10;;;;;;;27.86;36.41;100904.18;109917;1281;21969;-68
2023/10/30 09:08:44;;;;;;;5.00;1.00;;;;;;;27.94;36.14;100900.34;109944;1286;21922;-59
2023/10/30 09:11:10;;;;;;;4.10;0.90;;;;;;;28.02;36.12;100899.33;109899;1283;21943;-59
2023/10/30 09:13:36;;;;;;;2.10;0.60;;;;;;;28.09;35.69;100893.93;109910;1283;21831;-68
2023/10/30 09:16:02;;;;;;;9.00;1.00;;;;;;;28.16;35.47;100893.42;109932;1286;21948;-59
2023/10/30 09:18:27;;;;;;;5.10;0.80;;;;;;;28.21;35.29;100892.14;109929;1276;21968;-59
2023/10/30 09:20:53;;;;;;;4.80;0.90;;;;;;;28.24;35.08;100897.48;109941;1286;21964;-67
2023/10/30 09:23:19;;;;;;;9.00;1.10;;;;;;;28.26;34.90;100894.93;109933;1286;21850;-67
2023/10/30 09:25:44;;;;;;;3.70;0.80;;;;;;;28.27;34.34;100887.83;109895;1285;21943;-68
2023/10/30 09:28:11;;;;;;;6.30;1.10;;;;;;;28.30;34.49;100882.17;109908;1280;21948;-68
2023/10/30 09:30:37;;;;;;;3.40;0.90;;;;;;;28.38;34.06;100877.43;109908;1283;21870;-68
2023/10/30 09:33:03;;;;;;;3.00;0.80;;;;;;;28.48;34.19;100877.58;109911;1287;21899;-68
2023/10/30 09:35:32;;;;;;;3.80;1.30;;;;;;;28.53;33.81;100873.70;109914;1287;21873;-60
2023/10/30 09:37:58;;;;;;;4.00;0.90;;;;;;;28.59;33.34;100869.98;109905;1287;21948;-60
2023/10/30 09:40:27;;;;;;;5.90;1.10;;;;;;;28.70;33.49;100868.59;109901;1276;21982;-60
2023/10/30 09:42:54;;;;;;;3.40;1.00;;;;;;;28.75;32.86;100864.73;109883;1287;22250;-68
2023/10/30 09:45:22;;;;;;;5.10;1.00;;;;;;;28.73;32.46;100865.63;109904;1287;22077;-63
2023/10/30 09:47:50;;;;;;;4.10;0.80;;;;;;;28.74;33.11;100862.44;109929;1283;22026;-68
2023/10/30 09:50:16;;;;;;;5.80;1.10;;;;;;;28.73;32.77;100862.36;109923;1286;21970;-59
2023/10/30 09:52:41;;;;;;;4.60;1.10;;;;;;;28.73;33.03;100860.54;109879;1279;21876;-59
2023/10/30 09:55:11;;;;;;;2.40;0.80;;;;;;;28.79;33.06;100857.40;109852;1286;21988;-60
2023/10/30 09:57:37;;;;;;;4.20;1.10;;;;;;;28.87;32.77;100854.71;109842;1286;21995;-68
2023/10/30 10:00:05;;;;;;;5.30;1.10;;;;;;;28.93;32.77;100849.72;109886;1283;21981;-68
2023/10/30 10:02:32;;;;;;;2.70;0.70;;;;;;;28.98;32.82;100846.80;109933;1286;22364;-68
2023/10/30 10:04:58;;;;;;;9.70;1.60;;;;;;;29.07;32.71;100848.42;109919;1286;22000;-68
2023/10/30 10:07:24;;;;;;;5.10;1.20;;;;;;;29.14;32.65;100847.30;109883;1284;21892;-68
2023/10/30 10:09:57;;;;;;;4.10;1.30;;;;;;;29.18;31.93;100842.84;109906;1286;21970;-60
2023/10/30 10:12:22;;;;;;;4.60;0.80;;;;;;;29.21;32.28;100840.04;109919;1286;21873;-68
2023/10/30 10:14:48;;;;;;;4.10;1.00;;;;;;;29.20;31.58;100837.95;109925;1286;21969;-60
2023/10/30 10:17:13;;;;;;;5.20;0.90;;;;;;;29.27;31.80;100845.49;109938;1286;21984;-59
2023/10/30 10:19:45;;;;;;;4.30;1.10;;;;;;;29.34;31.42;100839.83;109932;1286;22021;-60
2023/10/30 10:22:11;;;;;;;3.50;0.90;;;;;;;29.36;31.76;100840.02;109888;1286;22411;-59
2023/10/30 10:24:37;;;;;;;6.80;1.80;;;;;;;29.39;31.63;100836.71;109834;1284;22047;-59
2023/10/30 10:27:04;;;;;;;3.10;0.80;;;;;;;29.41;31.17;100833.19;109908;1286;22011;-59
2023/10/30 10:29:31;;;;;;;2.90;0.90;;;;;;;29.36;31.34;100832.80;109914;1280;21989;-60
2023/10/30 10:31:57;;;;;;;7.60;1.10;;;;;;;29.33;31.38;100832.66;109839;1286;21881;-59
2023/10/30 10:34:23;;;;;;;4.40;1.30;;;;;;;29.34;31.02;100831.35;109919;1286;21968;-59
2023/10/30 10:36:49;;;;;;;4.60;1.00;;;;;;;29.38;31.55;100823.60;109932;1286;21958;-60
2023/10/30 10:39:14;;;;;;;6.90;1.10;;;;;;;29.46;31.33;100822.95;109934;1283;22023;-60
2023/10/30 10:41:41;;;;;;;9.90;1.20;;;;;;;29.58;31.33;100818.17;109920;1286;22433;-59
2023/10/30 10:44:07;;;;;;;9.60;1.20;;;;;;;29.60;30.96;100814.88;109933;1285;21970;-59
2023/10/30 10:46:33;;;;;;;2.80;0.80;;;;;;;29.61;31.01;100809.92;109819;1287;21939;-68
2023/10/30 10:48:59;;;;;;;4.20;1.10;;;;;;;29.64;30.43;100805.71;109831;1287;21949;-68
2023/10/30 10:51:34;;;;;;;1.50;0.80;;;;;;;29.67;30.42;100803.65;109881;1287;21946;-59
2023/10/30 10:54:03;;;;;;;4.20;0.90;;;;;;;29.70;30.29;100797.23;109891;1287;22014;-68
2023/10/30 10:56:30;;;;;;;4.80;0.80;;;;;;;29.73;30.31;100795.67;109899;1287;21917;-68
2023/10/30 10:59:01;;;;;;;3.50;0.80;;;;;;;29.79;30.18;100796.60;109906;1281;21967;-68
2023/10/30 11:01:26;;;;;;;2.60;0.60;;;;;;;29.77;30.20;100787.61;109921;1287;21961;-71
2023/10/30 11:03:52;;;;;;;4.50;0.90;;;;;;;29.73;30.17;100784.30;109873;1287;21944;-60
2023/10/30 11:06:18;;;;;;;6.80;1.00;;;;;;;29.77;30.26;100784.69;109900;1287;21772;-60
2023/10/30 11:08:56;;;;;;;2.30;0.90;;;;;;;29.78;29.78;100784.91;109837;1287;21933;-67
2023/10/30 11:11:47;;;;;;;10.30;1.10;;;;;;;29.75;29.85;100783.09;109909;1276;21933;-60